Anza, California
Current Conditions -  °F | °C
As of 4:53 PM on Saturday 25 Oct 2014 (Local Time) from KPSP Reporting Station
Clear Clear  
Wind Chill: 34°   Ceiling: Unl
Heat Index: 34°   Visibility: 10mi
Dew Point:   Wind: 17mph
Humidity: 18%   Direction: 300°WNW
Pressure: 29.89"   Gusts: 22mph
Location:  33.55°N, 116.67°W
Report Text: KPSP 252353Z 30015G19KT 10SM CLR 34/07 A2989 RMK AO2 SLP117 T03390067 10356 20306 56013
Loading
Personal Weather Stations






























Interactive Weather Map
Tropical Storm Tracking
New forecast layout! Learn more

10-Day Weather Forecast

Advertisements
Track Severe Weather on mobile